Time;durP1;ratioP1;P1;durP2;ratioP2;P2;SDS_P1;SDS_P2;PMS_P1;PMS_P2;Temp;Humidity;BMP_temperature;BMP_pressure;BME280_temperature;BME280_humidity;BME280_pressure;Samples;Min_cycle;Max_cycle;Signal;HPM_P1;HPM_P2
2020/12/07 00:01:05;;;;;;;16.85;10.00;;;2.80;73.90;;;;;;5009730;28;20123;-70
2020/12/07 00:03:32;;;;;;;14.40;8.43;;;2.80;73.90;;;;;;5005921;28;20073;-71
2020/12/07 00:06:00;;;;;;;16.02;9.95;;;2.90;74.60;;;;;;5010391;28;20042;-70
2020/12/07 00:08:28;;;;;;;14.50;8.85;;;2.90;74.90;;;;;;5008857;28;20172;-70
2020/12/07 00:10:55;;;;;;;13.27;8.40;;;2.90;74.20;;;;;;5009920;28;20050;-70
2020/12/07 00:13:22;;;;;;;14.75;9.30;;;2.90;74.40;;;;;;5006577;28;20072;-71
2020/12/07 00:15:49;;;;;;;13.55;8.68;;;2.90;74.20;;;;;;5009466;28;20046;-70
2020/12/07 00:18:16;;;;;;;13.32;9.00;;;2.90;74.70;;;;;;5011405;28;20050;-70
2020/12/07 00:20:44;;;;;;;15.40;9.23;;;2.90;75.00;;;;;;5008519;28;20050;-71
2020/12/07 00:23:11;;;;;;;16.42;8.60;;;2.90;75.20;;;;;;5008428;28;20504;-70
2020/12/07 00:25:40;;;;;;;14.18;8.15;;;2.90;75.50;;;;;;5009797;28;20475;-70
2020/12/07 00:28:07;;;;;;;11.55;7.63;;;2.90;74.80;;;;;;5009245;28;20355;-70
2020/12/07 00:30:33;;;;;;;13.90;8.23;;;3.00;75.90;;;;;;5010381;28;20052;-70
2020/12/07 00:33:00;;;;;;;12.20;8.15;;;3.00;75.80;;;;;;5006577;28;20132;-71
2020/12/07 00:35:28;;;;;;;14.85;7.78;;;2.90;74.60;;;;;;5009213;28;20062;-71
2020/12/07 00:37:55;;;;;;;12.40;7.70;;;3.00;74.90;;;;;;5010771;28;20689;-72
2020/12/07 00:40:22;;;;;;;11.98;8.07;;;3.00;74.40;;;;;;5011492;28;20038;-71
2020/12/07 00:42:50;;;;;;;10.45;7.25;;;2.90;73.80;;;;;;5010497;28;20503;-71
2020/12/07 00:45:16;;;;;;;12.93;7.15;;;2.90;74.00;;;;;;5011272;28;20049;-71
2020/12/07 00:47:43;;;;;;;12.38;7.13;;;3.00;74.00;;;;;;5012202;28;20045;-71
2020/12/07 00:50:11;;;;;;;10.68;6.40;;;2.90;73.10;;;;;;5012091;28;20053;-70
2020/12/07 00:52:38;;;;;;;12.85;7.43;;;2.90;74.10;;;;;;5017581;28;20128;-70
2020/12/07 00:55:05;;;;;;;12.57;6.95;;;3.00;74.60;;;;;;5016770;28;20091;-68
2020/12/07 00:57:32;;;;;;;10.65;6.85;;;3.00;73.60;;;;;;5026797;28;20050;-69
2020/12/07 01:00:00;;;;;;;10.43;6.45;;;3.00;73.40;;;;;;5027385;28;20100;-77
2020/12/07 01:02:26;;;;;;;11.43;6.30;;;3.00;73.70;;;;;;5014663;28;20058;-69
2020/12/07 01:04:53;;;;;;;9.32;6.40;;;2.90;72.50;;;;;;5017134;28;20628;-68
2020/12/07 01:07:20;;;;;;;10.57;6.95;;;3.00;72.90;;;;;;5024017;28;20060;-69
2020/12/07 01:09:47;;;;;;;9.80;7.03;;;3.00;74.30;;;;;;5023824;28;20049;-77
2020/12/07 01:12:14;;;;;;;11.23;7.60;;;3.00;74.10;;;;;;5016925;28;20514;-72
2020/12/07 01:14:41;;;;;;;11.73;6.47;;;3.00;74.20;;;;;;5018294;28;20049;-69
2020/12/07 01:17:09;;;;;;;9.85;6.30;;;2.90;74.10;;;;;;5018288;28;20049;-69
2020/12/07 01:19:36;;;;;;;9.55;6.05;;;3.00;75.10;;;;;;5023023;28;20076;-69
2020/12/07 01:22:04;;;;;;;11.48;6.03;;;3.00;75.20;;;;;;5020911;28;20765;-70
2020/12/07 01:24:31;;;;;;;10.00;5.82;;;2.90;74.60;;;;;;5019022;28;20573;-69
2020/12/07 01:26:58;;;;;;;9.60;5.82;;;2.90;74.80;;;;;;5024323;28;20049;-72
2020/12/07 01:29:25;;;;;;;7.47;5.38;;;3.00;75.30;;;;;;5016656;28;20042;-71
2020/12/07 01:31:52;;;;;;;12.05;6.13;;;3.00;74.80;;;;;;5012804;28;20159;-70
2020/12/07 01:34:20;;;;;;;8.00;5.72;;;3.10;74.90;;;;;;5007842;28;20049;-70
2020/12/07 01:36:48;;;;;;;7.57;5.45;;;3.10;75.10;;;;;;5012175;28;20424;-70
2020/12/07 01:39:15;;;;;;;10.00;5.55;;;3.10;74.00;;;;;;5011717;28;20592;-70
2020/12/07 01:41:42;;;;;;;9.07;5.38;;;3.00;73.40;;;;;;5010978;28;20176;-70
2020/12/07 01:44:09;;;;;;;7.93;5.68;;;3.00;73.60;;;;;;5008582;28;20523;-70
2020/12/07 01:46:37;;;;;;;8.90;6.00;;;3.00;73.90;;;;;;5013661;28;20046;-69
2020/12/07 01:49:04;;;;;;;8.27;5.40;;;3.00;74.40;;;;;;5014030;28;20100;-70
2020/12/07 01:51:36;;;;;;;8.77;5.68;;;3.00;74.50;;;;;;5013265;28;20064;-70
2020/12/07 01:54:03;;;;;;;9.02;5.53;;;3.00;75.40;;;;;;5006805;28;20487;-70
2020/12/07 01:56:31;;;;;;;8.20;5.88;;;3.00;75.40;;;;;;5015184;28;20046;-70
2020/12/07 01:58:58;;;;;;;9.75;6.38;;;3.00;75.40;;;;;;5011156;28;20054;-70
2020/12/07 02:01:26;;;;;;;9.48;5.95;;;3.00;75.40;;;;;;5012719;28;20064;-71
2020/12/07 02:03:53;;;;;;;10.48;5.95;;;3.00;74.80;;;;;;5009516;28;20049;-70
2020/12/07 02:06:20;;;;;;;8.10;5.90;;;3.00;75.40;;;;;;5013088;28;20503;-70
2020/12/07 02:08:49;;;;;;;11.27;6.45;;;2.90;75.20;;;;;;5012886;28;20411;-70
2020/12/07 02:11:16;;;;;;;7.75;5.00;;;3.00;75.50;;;;;;5010690;28;20439;-71
2020/12/07 02:13:44;;;;;;;7.68;5.57;;;3.00;75.00;;;;;;5007389;28;20057;-70
2020/12/07 02:16:11;;;;;;;9.85;5.53;;;3.00;74.80;;;;;;5012369;28;20050;-69
2020/12/07 02:18:38;;;;;;;8.45;4.80;;;3.00;74.80;;;;;;5016683;28;20116;-69
2020/12/07 02:21:05;;;;;;;9.10;5.20;;;3.00;74.40;;;;;;5019682;28;20054;-69
2020/12/07 02:23:32;;;;;;;7.88;5.32;;;3.00;75.00;;;;;;5018890;28;20153;-72
2020/12/07 02:25:59;;;;;;;7.38;5.10;;;2.90;75.00;;;;;;5014919;28;20060;-68
2020/12/07 02:28:26;;;;;;;8.00;5.50;;;2.90;75.30;;;;;;5015454;28;20536;-73
2020/12/07 02:30:53;;;;;;;8.43;5.50;;;2.90;74.90;;;;;;5020100;28;20123;-68
2020/12/07 02:33:20;;;;;;;7.18;5.07;;;2.90;75.00;;;;;;5015024;28;20650;-69
2020/12/07 02:35:47;;;;;;;8.45;5.05;;;2.90;74.80;;;;;;5011771;28;20071;-72
2020/12/07 02:38:15;;;;;;;6.97;5.13;;;2.90;74.30;;;;;;5014099;28;20046;-73
2020/12/07 02:40:41;;;;;;;6.78;4.55;;;2.90;74.80;;;;;;5012063;28;20518;-72
2020/12/07 02:43:08;;;;;;;6.47;5.18;;;2.90;74.70;;;;;;5008749;28;20076;-72
2020/12/07 02:45:35;;;;;;;6.35;4.40;;;2.90;74.70;;;;;;5008762;28;20060;-72
2020/12/07 02:48:02;;;;;;;6.30;4.40;;;2.90;75.20;;;;;;5010125;28;20046;-73
2020/12/07 02:50:29;;;;;;;7.63;4.57;;;2.90;75.60;;;;;;5012137;28;20038;-70
2020/12/07 02:52:56;;;;;;;11.13;4.93;;;2.90;75.30;;;;;;5009089;28;20050;-68
2020/12/07 02:55:23;;;;;;;6.97;4.55;;;2.90;75.40;;;;;;5008790;28;20057;-73
2020/12/07 02:57:50;;;;;;;6.38;4.40;;;2.90;75.00;;;;;;5009048;28;20056;-74
2020/12/07 03:00:17;;;;;;;7.93;4.40;;;2.90;75.20;;;;;;5011369;28;20416;-71
2020/12/07 03:02:43;;;;;;;6.75;4.20;;;3.00;75.20;;;;;;5006868;28;20050;-68
2020/12/07 03:05:10;;;;;;;6.80;4.65;;;2.90;74.10;;;;;;5008094;28;20052;-72
2020/12/07 03:07:37;;;;;;;7.93;4.30;;;3.00;74.70;;;;;;5009557;28;20041;-68
2020/12/07 03:10:04;;;;;;;6.68;4.53;;;2.90;74.90;;;;;;5011766;28;20041;-72
2020/12/07 03:12:31;;;;;;;5.65;4.25;;;2.90;75.50;;;;;;5010405;28;20053;-74
2020/12/07 03:14:59;;;;;;;5.60;4.30;;;2.90;75.50;;;;;;5009494;28;20077;-71
2020/12/07 03:17:26;;;;;;;5.22;3.75;;;3.00;75.00;;;;;;5013978;28;20056;-70
2020/12/07 03:19:52;;;;;;;6.95;3.90;;;3.00;74.80;;;;;;5011695;28;20045;-72
2020/12/07 03:22:19;;;;;;;5.50;3.58;;;2.90;74.50;;;;;;5010957;28;20484;-70
2020/12/07 03:24:46;;;;;;;6.80;3.72;;;2.90;73.90;;;;;;5009561;28;20496;-72
2020/12/07 03:27:13;;;;;;;6.05;4.10;;;2.90;74.70;;;;;;5009176;28;20052;-73
2020/12/07 03:29:41;;;;;;;6.22;4.13;;;2.90;74.90;;;;;;5011165;28;20052;-71
2020/12/07 03:32:08;;;;;;;6.13;4.07;;;3.00;75.00;;;;;;5011686;28;20523;-71
2020/12/07 03:34:34;;;;;;;8.63;3.72;;;2.90;74.40;;;;;;5008481;28;20050;-72
2020/12/07 03:37:01;;;;;;;5.18;3.58;;;2.90;73.70;;;;;;5013169;28;20050;-72
2020/12/07 03:39:28;;;;;;;7.22;4.20;;;3.00;74.40;;;;;;5009866;28;20050;-68
2020/12/07 03:41:55;;;;;;;5.90;4.03;;;3.00;73.90;;;;;;5018513;28;20060;-70
2020/12/07 03:44:22;;;;;;;5.97;3.95;;;3.00;74.40;;;;;;5010404;28;20052;-68
2020/12/07 03:46:50;;;;;;;6.53;3.88;;;3.00;73.90;;;;;;5012299;28;20415;-69
2020/12/07 03:49:17;;;;;;;5.35;3.70;;;3.00;74.00;;;;;;5011681;28;20422;-71
2020/12/07 03:51:44;;;;;;;5.85;4.18;;;2.90;73.60;;;;;;5005216;28;20050;-68
2020/12/07 03:54:10;;;;;;;8.85;4.18;;;3.00;73.80;;;;;;5010229;28;20658;-69
2020/12/07 03:56:37;;;;;;;6.05;3.83;;;3.00;73.40;;;;;;5011770;28;20054;-68
2020/12/07 03:59:04;;;;;;;6.00;4.32;;;3.00;73.20;;;;;;5010770;28;20679;-69
2020/12/07 04:01:31;;;;;;;7.43;4.38;;;3.00;72.60;;;;;;5011831;28;20065;-73
2020/12/07 04:04:02;;;;;;;5.97;4.00;;;3.00;72.50;;;;;;5010876;28;20050;-68
2020/12/07 04:06:32;;;;;;;6.18;4.45;;;3.00;73.20;;;;;;5005486;28;20547;-73
2020/12/07 04:08:59;;;;;;;5.82;4.35;;;3.00;72.30;;;;;;5005527;28;20050;-70
2020/12/07 04:11:26;;;;;;;6.15;3.92;;;3.00;72.50;;;;;;5010691;28;20053;-70
2020/12/07 04:13:52;;;;;;;6.97;4.25;;;3.10;72.60;;;;;;5009069;28;20050;-70
2020/12/07 04:16:19;;;;;;;7.30;4.00;;;2.90;69.80;;;;;;5012638;28;20042;-70
2020/12/07 04:18:46;;;;;;;7.80;4.53;;;3.00;72.30;;;;;;5014492;28;20519;-70
2020/12/07 04:21:17;;;;;;;5.28;3.83;;;3.00;72.50;;;;;;5012796;28;20052;-70
2020/12/07 04:23:44;;;;;;;7.97;5.03;;;3.00;72.30;;;;;;5012035;28;20046;-70
2020/12/07 04:26:11;;;;;;;5.43;3.60;;;3.00;72.50;;;;;;5014483;28;20088;-70
2020/12/07 04:28:38;;;;;;;5.93;3.83;;;2.90;72.40;;;;;;5014465;28;20046;-70
2020/12/07 04:31:05;;;;;;;5.85;4.10;;;2.90;72.40;;;;;;5014313;28;20511;-69
2020/12/07 04:33:32;;;;;;;6.88;4.07;;;3.00;72.70;;;;;;5012720;28;20052;-70
2020/12/07 04:35:59;;;;;;;6.70;4.38;;;2.90;72.90;;;;;;5012817;28;20412;-70
2020/12/07 04:38:26;;;;;;;7.30;4.30;;;2.90;73.20;;;;;;5014240;28;20054;-70
2020/12/07 04:40:54;;;;;;;6.53;4.10;;;2.90;73.60;;;;;;5014029;28;20104;-70
2020/12/07 04:43:21;;;;;;;6.10;4.18;;;2.90;73.70;;;;;;5012185;28;20046;-70
2020/12/07 04:45:47;;;;;;;5.28;3.95;;;2.90;73.30;;;;;;5013098;28;20381;-70
2020/12/07 04:48:17;;;;;;;6.75;4.20;;;3.00;73.90;;;;;;5014301;28;20045;-71
2020/12/07 04:50:44;;;;;;;6.28;4.15;;;3.00;73.90;;;;;;5012472;28;20041;-69
2020/12/07 04:53:12;;;;;;;7.05;4.28;;;3.00;73.30;;;;;;5012808;28;20046;-72
2020/12/07 04:55:40;;;;;;;8.07;4.55;;;3.00;73.50;;;;;;5013635;28;20152;-70
2020/12/07 04:58:07;;;;;;;6.53;3.92;;;3.00;73.80;;;;;;5012474;28;20048;-71
2020/12/07 05:00:36;;;;;;;5.00;3.78;;;3.00;72.80;;;;;;5011851;28;20061;-71
2020/12/07 05:03:02;;;;;;;5.20;4.05;;;3.00;73.00;;;;;;5012377;28;20623;-69
2020/12/07 05:05:29;;;;;;;5.68;4.05;;;3.00;72.50;;;;;;5013067;28;20060;-70
2020/12/07 05:07:59;;;;;;;6.65;4.18;;;3.00;72.50;;;;;;5013808;28;20096;-70
2020/12/07 05:10:30;;;;;;;4.78;3.88;;;3.00;72.40;;;;;;5013665;28;20092;-71
2020/12/07 05:13:06;;;;;;;6.55;4.25;;;3.00;72.50;;;;;;5011981;28;20388;-69
2020/12/07 05:15:39;;;;;;;5.32;3.70;;;3.00;73.00;;;;;;5012655;28;20052;-72
2020/12/07 05:18:06;;;;;;;5.90;4.00;;;3.00;73.20;;;;;;5012759;28;20049;-70
2020/12/07 05:20:33;;;;;;;7.63;4.30;;;3.00;74.70;;;;;;5013267;28;20124;-70
2020/12/07 05:23:00;;;;;;;5.00;3.67;;;3.00;74.40;;;;;;5010963;28;20042;-69
2020/12/07 05:25:28;;;;;;;6.15;3.75;;;3.00;73.90;;;;;;5013959;28;20049;-69
2020/12/07 05:27:58;;;;;;;6.13;4.10;;;3.00;74.20;;;;;;5013649;28;20053;-74
2020/12/07 05:30:31;;;;;;;8.90;4.80;;;3.00;74.10;;;;;;5013728;28;20050;-68
2020/12/07 05:33:02;;;;;;;5.03;4.00;;;3.10;74.50;;;;;;5013065;28;20046;-73
2020/12/07 05:35:29;;;;;;;7.55;4.13;;;3.10;74.30;;;;;;5013850;28;20056;-68
2020/12/07 05:38:03;;;;;;;6.38;4.65;;;3.10;73.80;;;;;;5014108;28;20142;-69
2020/12/07 05:40:30;;;;;;;5.72;3.90;;;3.10;73.80;;;;;;5013945;28;20407;-67
2020/12/07 05:42:59;;;;;;;6.05;4.20;;;3.10;73.40;;;;;;5013425;28;20050;-68
2020/12/07 05:45:26;;;;;;;5.55;3.50;;;3.10;73.40;;;;;;5013760;28;20060;-68
2020/12/07 05:47:54;;;;;;;5.38;3.55;;;3.10;73.30;;;;;;5013887;28;20495;-74
2020/12/07 05:50:22;;;;;;;6.32;3.72;;;3.10;72.70;;;;;;5013819;28;20046;-68
2020/12/07 05:52:51;;;;;;;6.95;4.28;;;3.10;72.60;;;;;;5013165;28;20058;-68
2020/12/07 05:55:19;;;;;;;6.13;3.78;;;3.10;71.20;;;;;;4994226;28;20664;-70
2020/12/07 05:57:51;;;;;;;5.93;3.65;;;3.10;71.40;;;;;;5005528;28;20085;-72
2020/12/07 06:00:23;;;;;;;6.28;3.97;;;3.10;71.90;;;;;;5013932;28;20068;-69
2020/12/07 06:02:52;;;;;;;5.30;3.85;;;3.10;72.60;;;;;;5012959;28;20484;-69
2020/12/07 06:05:20;;;;;;;6.13;3.97;;;3.10;72.50;;;;;;5013455;28;20053;-73
2020/12/07 06:07:53;;;;;;;7.35;4.20;;;3.20;72.70;;;;;;5013367;28;20415;-71
2020/12/07 06:10:22;;;;;;;6.63;4.30;;;3.20;72.70;;;;;;5013124;28;20052;-68
2020/12/07 06:12:53;;;;;;;6.75;4.05;;;3.10;71.60;;;;;;5012403;28;20054;-71
2020/12/07 06:15:22;;;;;;;7.28;3.90;;;3.10;72.30;;;;;;5012668;28;20100;-70
2020/12/07 06:17:50;;;;;;;7.10;4.18;;;3.10;72.00;;;;;;5010822;28;20069;-71
2020/12/07 06:20:27;;;;;;;;;;;3.20;72.70;;;;;;5011378;28;20052;-70
2020/12/07 06:22:55;;;;;;;13.15;4.68;;;3.20;72.20;;;;;;5011132;28;19927;-70
2020/12/07 06:25:27;;;;;;;6.32;4.32;;;3.20;72.20;;;;;;5010263;28;20069;-71
2020/12/07 06:27:57;;;;;;;8.65;4.45;;;3.10;71.60;;;;;;5012265;28;20128;-71
2020/12/07 06:30:31;;;;;;;6.22;4.18;;;3.10;72.20;;;;;;5010775;28;20080;-70
2020/12/07 06:33:03;;;;;;;11.30;4.75;;;3.10;72.20;;;;;;5009209;28;20066;-70
2020/12/07 06:35:30;;;;;;;7.68;4.80;;;3.10;72.60;;;;;;5011204;28;20054;-70
2020/12/07 06:38:02;;;;;;;8.15;4.75;;;3.00;72.20;;;;;;5011663;28;20052;-69
2020/12/07 06:40:30;;;;;;;7.43;5.20;;;2.90;72.40;;;;;;5011530;28;20049;-69
2020/12/07 06:42:57;;;;;;;9.63;5.20;;;2.90;73.10;;;;;;5010395;28;20077;-71
2020/12/07 06:45:32;;;;;;;10.43;4.88;;;2.90;73.50;;;;;;5010459;28;20053;-72
2020/12/07 06:48:07;;;;;;;7.57;5.55;;;2.90;73.90;;;;;;5011279;28;20423;-70
2020/12/07 06:50:37;;;;;;;8.43;5.53;;;2.80;74.30;;;;;;5010661;28;20050;-70
2020/12/07 06:53:25;;;;;;;8.77;5.72;;;2.70;74.50;;;;;;5008615;28;20056;-71
2020/12/07 06:55:52;;;;;;;9.90;5.68;;;2.80;74.90;;;;;;5010949;28;20052;-69
2020/12/07 06:58:32;;;;;;;10.05;5.85;;;2.80;74.80;;;;;;5011469;28;20048;-70
2020/12/07 07:01:11;;;;;;;9.50;6.00;;;2.80;74.30;;;;;;5011171;28;20056;-70
2020/12/07 07:03:49;;;;;;;9.82;5.85;;;2.80;74.60;;;;;;5010048;28;20057;-71
2020/12/07 07:06:19;;;;;;;12.45;6.03;;;2.80;74.80;;;;;;5010412;28;20546;-69
2020/12/07 07:08:46;;;;;;;9.98;5.97;;;2.80;74.70;;;;;;5012393;28;20065;-68
2020/12/07 07:11:14;;;;;;;11.48;6.07;;;2.90;75.40;;;;;;5012278;28;20050;-68
2020/12/07 07:13:47;;;;;;;10.43;6.13;;;2.90;74.00;;;;;;5011276;28;20114;-72
2020/12/07 07:16:16;;;;;;;11.27;6.13;;;2.90;74.40;;;;;;4994905;28;20050;-70
2020/12/07 07:18:43;;;;;;;12.45;5.80;;;3.00;74.00;;;;;;5011861;28;20056;-69
2020/12/07 07:21:10;;;;;;;9.75;6.07;;;3.00;73.90;;;;;;5009222;28;20136;-70
2020/12/07 07:23:37;;;;;;;10.38;6.25;;;3.00;72.60;;;;;;5011243;28;20050;-71
2020/12/07 07:26:16;;;;;;;17.50;7.97;;;3.00;73.10;;;;;;5011719;28;20588;-68
2020/12/07 07:28:44;;;;;;;12.98;7.47;;;3.10;72.60;;;;;;5012450;28;20054;-68
2020/12/07 07:31:13;;;;;;;10.20;6.55;;;3.20;72.90;;;;;;5012253;28;20149;-71
2020/12/07 07:33:41;;;;;;;15.52;7.18;;;3.20;72.70;;;;;;5000755;28;20077;-69
2020/12/07 07:36:08;;;;;;;12.30;7.38;;;3.30;72.50;;;;;;5012142;28;20495;-70
2020/12/07 07:38:36;;;;;;;13.30;6.95;;;3.30;71.00;;;;;;5012706;28;20053;-69
2020/12/07 07:41:03;;;;;;;11.95;6.78;;;3.30;70.30;;;;;;5011853;28;20081;-67
2020/12/07 07:43:30;;;;;;;12.68;7.05;;;3.40;69.70;;;;;;5011440;28;20056;-71
2020/12/07 07:46:00;;;;;;;9.77;6.30;;;3.40;69.30;;;;;;5012027;28;20100;-73
2020/12/07 07:48:35;;;;;;;12.20;7.18;;;3.50;69.40;;;;;;5012034;28;20430;-67
2020/12/07 07:51:35;;;;;;;12.90;6.93;;;3.50;69.10;;;;;;5012717;28;20416;-73
2020/12/07 08:16:16;;;;;;;12.90;7.70;;;3.90;61.80;;;;;;5015041;28;20491;-74
2020/12/07 08:18:44;;;;;;;12.13;7.22;;;4.00;62.70;;;;;;5014856;28;20457;-72
2020/12/07 08:21:11;;;;;;;11.10;6.47;;;3.90;58.10;;;;;;5014594;28;20057;-71
2020/12/07 08:23:38;;;;;;;12.07;6.38;;;3.90;58.30;;;;;;5013088;28;20577;-72
2020/12/07 08:26:06;;;;;;;11.45;6.20;;;3.90;58.50;;;;;;5014695;28;20512;-72
2020/12/07 08:28:34;;;;;;;11.63;6.38;;;4.00;59.60;;;;;;5014841;28;20050;-73
2020/12/07 08:31:04;;;;;;;10.88;6.57;;;4.00;60.40;;;;;;5014879;28;20056;-75
2020/12/07 08:33:33;;;;;;;13.40;6.85;;;4.10;61.30;;;;;;5011975;28;20081;-73
2020/12/07 08:36:01;;;;;;;11.75;6.85;;;4.10;59.40;;;;;;5014751;28;20137;-72
2020/12/07 08:38:30;;;;;;;11.23;6.38;;;4.20;58.70;;;;;;5014140;28;20132;-72
2020/12/07 08:41:06;;;;;;;11.40;6.65;;;4.20;57.90;;;;;;5014628;28;20046;-72
2020/12/07 08:43:33;;;;;;;11.00;6.45;;;4.30;57.90;;;;;;5012556;28;20049;-72
2020/12/07 08:46:00;;;;;;;10.52;5.97;;;4.20;57.20;;;;;;5014308;28;20450;-71
2020/12/07 08:48:27;;;;;;;11.95;6.55;;;4.10;58.30;;;;;;5012420;28;20056;-73
2020/12/07 08:50:55;;;;;;;8.80;6.68;;;4.10;57.90;;;;;;5014063;28;20096;-73
2020/12/07 08:53:22;;;;;;;11.40;6.40;;;4.20;60.00;;;;;;5012696;28;20132;-71
2020/12/07 08:55:49;;;;;;;9.23;6.50;;;4.10;59.90;;;;;;5012377;28;20080;-73
2020/12/07 08:58:17;;;;;;;9.10;6.35;;;4.10;59.90;;;;;;5012654;28;20049;-72
2020/12/07 09:00:44;;;;;;;12.25;6.85;;;4.20;59.80;;;;;;5013602;28;20496;-72
2020/12/07 09:03:11;;;;;;;11.05;6.30;;;4.30;60.00;;;;;;5011218;28;20050;-72
2020/12/07 09:05:38;;;;;;;11.38;6.75;;;4.40;58.20;;;;;;5013348;28;20041;-71
2020/12/07 09:08:06;;;;;;;12.60;7.35;;;4.40;57.80;;;;;;5012753;28;20049;-72
2020/12/07 09:10:33;;;;;;;9.68;6.43;;;4.50;56.60;;;;;;5012832;28;20048;-70
2020/12/07 09:13:01;;;;;;;9.65;6.38;;;4.40;56.60;;;;;;5012153;28;20041;-71
2020/12/07 09:15:30;;;;;;;11.30;7.25;;;4.50;57.50;;;;;;5011749;28;20129;-71
2020/12/07 09:17:56;;;;;;;9.85;6.47;;;4.60;57.10;;;;;;5010516;28;20054;-71
2020/12/07 09:20:23;;;;;;;9.02;6.07;;;4.60;58.50;;;;;;5013174;28;20048;-71
2020/12/07 09:22:50;;;;;;;10.05;6.72;;;4.70;55.90;;;;;;5012067;28;20045;-71
2020/12/07 09:25:17;;;;;;;9.93;5.85;;;4.80;55.80;;;;;;5013438;28;20042;-71
2020/12/07 09:27:44;;;;;;;10.52;6.40;;;4.90;54.50;;;;;;5012993;28;20046;-71
2020/12/07 09:30:12;;;;;;;14.95;6.97;;;4.90;54.30;;;;;;5013382;28;20058;-69
2020/12/07 09:32:39;;;;;;;12.65;6.43;;;5.00;54.30;;;;;;5011512;28;20163;-71
2020/12/07 09:35:08;;;;;;;9.15;5.85;;;5.10;52.30;;;;;;5011388;28;20052;-71
2020/12/07 09:37:36;;;;;;;9.75;5.72;;;5.10;50.80;;;;;;5012548;28;21270;-70
2020/12/07 09:40:05;;;;;;;7.53;5.35;;;5.10;50.90;;;;;;5012712;28;20049;-71
2020/12/07 09:42:32;;;;;;;9.25;6.15;;;5.10;51.20;;;;;;5009730;28;20053;-72
2020/12/07 09:44:59;;;;;;;11.85;6.90;;;5.10;52.50;;;;;;5012032;28;20054;-69
2020/12/07 09:47:27;;;;;;;9.52;5.70;;;5.10;51.80;;;;;;5010651;28;20590;-70
2020/12/07 09:49:55;;;;;;;8.63;5.93;;;5.10;53.70;;;;;;5013044;28;20147;-70
2020/12/07 09:52:22;;;;;;;11.30;5.55;;;5.30;54.50;;;;;;5010471;28;20052;-71
2020/12/07 09:54:48;;;;;;;8.70;4.45;;;5.40;48.50;;;;;;5010426;28;20479;-70
2020/12/07 09:57:16;;;;;;;5.85;4.32;;;5.40;46.40;;;;;;5012713;28;20042;-71
2020/12/07 09:59:45;;;;;;;6.75;4.75;;;5.40;46.80;;;;;;5012229;28;20050;-71
2020/12/07 10:02:12;;;;;;;6.30;4.40;;;5.40;46.40;;;;;;5009888;28;20045;-71
2020/12/07 10:04:38;;;;;;;6.85;4.63;;;5.40;43.50;;;;;;5011581;28;20064;-70
2020/12/07 10:07:06;;;;;;;11.70;5.38;;;5.60;44.20;;;;;;5012334;28;20526;-71
2020/12/07 10:09:33;;;;;;;8.02;5.18;;;5.70;41.40;;;;;;5009239;28;20504;-70
2020/12/07 10:12:01;;;;;;;6.30;4.43;;;5.70;42.50;;;;;;5011161;28;20046;-72
2020/12/07 10:14:28;;;;;;;5.75;3.97;;;5.70;44.20;;;;;;5011216;28;20103;-73
2020/12/07 10:16:56;;;;;;;9.13;4.90;;;5.80;41.20;;;;;;5010646;28;20057;-71
2020/12/07 10:19:23;;;;;;;7.90;4.93;;;5.90;38.90;;;;;;5012198;28;20159;-71
2020/12/07 10:21:50;;;;;;;18.70;12.13;;;5.90;42.10;;;;;;5010263;28;20052;-71
2020/12/07 10:24:17;;;;;;;11.57;6.22;;;6.10;39.30;;;;;;5011078;28;20073;-70
2020/12/07 10:26:44;;;;;;;5.72;3.83;;;6.30;35.50;;;;;;5011733;28;20046;-71
2020/12/07 10:29:11;;;;;;;6.55;3.97;;;6.50;32.60;;;;;;5010901;28;20136;-71
2020/12/07 10:31:43;;;;;;;4.65;2.92;;;6.50;30.60;;;;;;5009055;28;20056;-71
2020/12/07 10:34:10;;;;;;;6.07;3.70;;;6.50;27.00;;;;;;5004566;28;20129;-71
2020/12/07 10:36:38;;;;;;;5.28;3.28;;;6.60;29.20;;;;;;5006983;28;20058;-72
2020/12/07 10:39:07;;;;;;;5.85;4.00;;;6.50;25.60;;;;;;5010775;28;20052;-71
2020/12/07 10:41:35;;;;;;;3.45;2.85;;;6.50;26.50;;;;;;5009583;28;20100;-70
2020/12/07 10:44:01;;;;;;;3.90;3.03;;;6.40;24.80;;;;;;5008767;28;20084;-70
2020/12/07 10:46:29;;;;;;;6.03;4.10;;;6.50;24.00;;;;;;5010748;28;20089;-71
2020/12/07 10:48:56;;;;;;;4.97;3.45;;;6.50;25.80;;;;;;5009079;28;20054;-71
2020/12/07 10:51:23;;;;;;;7.80;4.40;;;6.50;26.60;;;;;;5009238;28;20050;-70
2020/12/07 10:53:50;;;;;;;4.65;3.35;;;6.30;29.30;;;;;;5011133;28;20045;-71
2020/12/07 10:56:17;;;;;;;5.35;3.38;;;6.30;25.90;;;;;;5009186;28;20069;-72
2020/12/07 10:58:45;;;;;;;4.18;3.05;;;6.40;28.40;;;;;;5009928;28;20045;-71
2020/12/07 11:01:12;;;;;;;4.90;3.67;;;6.40;27.20;;;;;;5011175;28;20042;-70
2020/12/07 11:03:40;;;;;;;6.88;4.30;;;6.30;30.60;;;;;;5011981;28;20077;-70
2020/12/07 11:06:13;;;;;;;10.18;6.63;;;6.40;32.70;;;;;;5008014;28;20061;-70
2020/12/07 11:08:49;;;;;;;9.00;5.97;;;6.30;31.90;;;;;;5010347;28;20046;-70
2020/12/07 11:11:16;;;;;;;5.68;4.70;;;6.20;33.20;;;;;;5008677;28;20056;-70
2020/12/07 11:13:43;;;;;;;8.63;5.00;;;6.20;34.00;;;;;;5009624;28;20400;-71
2020/12/07 11:16:12;;;;;;;8.63;5.38;;;6.10;35.20;;;;;;5005171;28;20053;-69
2020/12/07 11:18:39;;;;;;;7.32;5.43;;;6.00;34.90;;;;;;5010079;28;20076;-71
2020/12/07 11:21:12;;;;;;;6.18;4.80;;;6.00;37.00;;;;;;5008408;28;20065;-70
2020/12/07 11:23:41;;;;;;;6.22;4.90;;;5.80;33.10;;;;;;5009784;28;20046;-70
2020/12/07 11:26:09;;;;;;;8.23;5.30;;;5.70;36.00;;;;;;5007705;28;20057;-70
2020/12/07 11:28:37;;;;;;;8.98;5.63;;;5.80;36.20;;;;;;5011490;28;20068;-71
2020/12/07 11:31:04;;;;;;;10.00;5.13;;;5.80;34.50;;;;;;5005587;28;20500;-70
2020/12/07 11:33:31;;;;;;;9.50;5.20;;;5.90;34.60;;;;;;5008757;28;20049;-71
2020/12/07 11:36:12;;;;;;;7.82;5.35;;;5.80;36.90;;;;;;5008361;28;20064;-70
2020/12/07 11:38:42;;;;;;;8.60;4.97;;;5.70;34.10;;;;;;5010996;28;20144;-69
2020/12/07 11:41:21;;;;;;;7.70;4.93;;;5.70;33.70;;;;;;5010898;28;20046;-69
2020/12/07 11:43:52;;;;;;;9.30;6.80;;;5.60;34.90;;;;;;5008456;28;20056;-71
2020/12/07 11:46:27;;;;;;;6.10;4.78;;;5.70;33.80;;;;;;5008768;28;20049;-69
2020/12/07 11:48:55;;;;;;;6.10;4.60;;;5.60;33.80;;;;;;5010366;28;20046;-70
2020/12/07 11:51:24;;;;;;;7.70;5.15;;;5.50;36.80;;;;;;5008871;28;20125;-70
2020/12/07 11:53:53;;;;;;;9.18;5.90;;;5.60;35.30;;;;;;5008604;28;20090;-71
2020/12/07 11:56:26;;;;;;;6.72;4.68;;;5.60;35.30;;;;;;5007180;28;20048;-70
2020/12/07 11:58:53;;;;;;;7.15;4.78;;;5.60;36.10;;;;;;5010081;28;20042;-71
2020/12/07 12:01:20;;;;;;;8.20;4.68;;;5.60;35.80;;;;;;5008935;28;20046;-71
2020/12/07 12:03:47;;;;;;;8.85;6.03;;;5.60;33.30;;;;;;5007452;28;20049;-70
2020/12/07 12:06:21;;;;;;;8.70;5.47;;;5.60;34.80;;;;;;5006115;28;20928;-69
2020/12/07 12:08:49;;;;;;;6.10;4.68;;;5.50;34.40;;;;;;5011048;28;20771;-70
2020/12/07 12:11:16;;;;;;;7.25;4.70;;;5.50;33.80;;;;;;5011058;28;20069;-70
2020/12/07 12:13:43;;;;;;;5.97;4.35;;;5.50;34.50;;;;;;5007353;28;20137;-71
2020/12/07 12:16:12;;;;;;;5.40;4.80;;;5.50;31.00;;;;;;5004667;28;20045;-73
2020/12/07 12:18:40;;;;;;;6.15;4.70;;;5.40;32.00;;;;;;5006044;28;20137;-74
2020/12/07 12:21:07;;;;;;;9.35;4.47;;;5.40;33.10;;;;;;5008896;28;20100;-71
2020/12/07 12:23:35;;;;;;;9.45;4.10;;;5.40;33.60;;;;;;5008064;28;20150;-73
2020/12/07 12:26:01;;;;;;;7.07;4.78;;;5.40;33.70;;;;;;5005881;28;20050;-71
2020/12/07 12:28:28;;;;;;;5.93;4.10;;;5.40;33.30;;;;;;5009787;28;20068;-70
2020/12/07 12:30:56;;;;;;;6.10;4.13;;;5.40;32.40;;;;;;5009688;28;20045;-71
2020/12/07 12:33:24;;;;;;;9.70;4.80;;;5.40;35.00;;;;;;5007872;28;20046;-74
2020/12/07 12:35:51;;;;;;;6.20;4.05;;;5.40;33.50;;;;;;5005640;28;21301;-72
2020/12/07 12:38:18;;;;;;;7.13;5.03;;;5.50;31.80;;;;;;5012427;28;20054;-71
2020/12/07 12:40:46;;;;;;;14.10;4.40;;;5.50;34.40;;;;;;5008743;28;20061;-71
2020/12/07 12:43:16;;;;;;;5.45;3.78;;;5.40;31.40;;;;;;5011719;28;20041;-70
2020/12/07 12:45:43;;;;;;;6.00;4.00;;;5.50;29.90;;;;;;5010516;28;20046;-71
2020/12/07 12:48:10;;;;;;;5.25;3.53;;;5.40;30.00;;;;;;5011589;28;20055;-71
2020/12/07 12:50:37;;;;;;;7.43;3.40;;;5.40;31.00;;;;;;5014365;28;20722;-71
2020/12/07 12:53:04;;;;;;;6.07;3.90;;;5.40;29.60;;;;;;5008678;28;20053;-72
2020/12/07 12:55:31;;;;;;;6.80;3.83;;;5.50;29.00;;;;;;5006685;28;20142;-74
2020/12/07 12:57:59;;;;;;;7.05;3.42;;;5.40;29.90;;;;;;5016874;28;20461;-70
2020/12/07 13:00:26;;;;;;;4.15;3.13;;;5.40;28.60;;;;;;5013365;28;20057;-71
2020/12/07 13:02:53;;;;;;;5.30;3.25;;;5.50;29.00;;;;;;5010031;28;20045;-71
2020/12/07 13:05:19;;;;;;;7.88;3.72;;;5.50;30.00;;;;;;5007687;28;20049;-71
2020/12/07 13:07:46;;;;;;;6.82;4.00;;;5.50;26.40;;;;;;5012716;28;20056;-70
2020/12/07 13:10:13;;;;;;;7.35;3.40;;;5.50;28.70;;;;;;5011116;28;20514;-73
2020/12/07 13:12:40;;;;;;;6.00;3.70;;;5.50;27.60;;;;;;5012874;28;20488;-71
2020/12/07 13:15:08;;;;;;;4.70;3.30;;;5.50;26.00;;;;;;5012781;28;20046;-70
2020/12/07 13:17:40;;;;;;;9.25;3.60;;;5.50;26.50;;;;;;5010170;28;20050;-71
2020/12/07 13:20:10;;;;;;;6.72;3.80;;;5.50;28.30;;;;;;5017699;28;20041;-70
2020/12/07 13:22:42;;;;;;;6.00;4.28;;;5.60;28.10;;;;;;5012081;28;20073;-71